Time;durP1;ratioP1;P1;durP2;ratioP2;P2;SDS_P1;SDS_P2;PMS_P1;PMS_P2;Temp;Humidity;BMP_temperature;BMP_pressure;BME280_temperature;BME280_humidity;BME280_pressure;Samples;Min_cycle;Max_cycle;Signal;HPM_P1;HPM_P2
2022/03/12 00:00:19;;;;;;;9.68;3.92;;;10.20;43.60;;;10.07;28.29;100916.81;5225130;28;20053;-72
2022/03/12 00:02:51;;;;;;;7.53;4.10;;;10.10;43.70;;;10.10;28.47;100923.84;5224416;28;20064;-72
2022/03/12 00:05:25;;;;;;;9.55;4.55;;;10.10;43.80;;;10.12;28.53;100923.09;5221476;28;20040;-72
2022/03/12 00:07:58;;;;;;;10.20;4.28;;;10.10;43.90;;;10.11;28.46;100925.63;5225353;28;20053;-73
2022/03/12 00:10:32;;;;;;;9.93;3.90;;;10.10;43.90;;;10.16;28.59;100922.34;5224861;28;20128;-72
2022/03/12 00:13:06;;;;;;;9.13;4.15;;;10.10;44.10;;;10.04;28.59;100909.78;5225329;28;20049;-72
2022/03/12 00:15:38;;;;;;;7.75;3.70;;;10.10;43.90;;;10.10;28.98;100931.66;5224491;28;20421;-72
2022/03/12 00:18:11;;;;;;;10.05;3.97;;;10.10;44.20;;;10.05;28.87;100921.06;5224446;28;20048;-72
2022/03/12 00:20:48;;;;;;;10.02;4.22;;;10.10;44.10;;;10.01;29.00;100922.66;5224253;28;20095;-72
2022/03/12 00:23:21;;;;;;;8.77;3.95;;;10.10;44.20;;;9.98;28.84;100919.94;5224716;28;20084;-72
2022/03/12 00:25:52;;;;;;;10.85;4.40;;;10.10;44.30;;;9.94;29.34;100925.84;5224757;28;20052;-72
2022/03/12 00:28:26;;;;;;;8.77;4.35;;;10.00;44.60;;;9.98;29.16;100917.34;5224364;28;20354;-72
2022/03/12 00:30:59;;;;;;;7.93;4.20;;;10.00;44.50;;;9.96;29.39;100926.78;5224825;28;20107;-72
2022/03/12 00:33:31;;;;;;;11.65;4.68;;;10.00;44.60;;;9.97;29.29;100920.75;5224648;28;20428;-72
2022/03/12 00:36:03;;;;;;;10.85;4.15;;;10.00;44.50;;;9.94;29.47;100928.47;5224951;28;20394;-73
2022/03/12 00:38:36;;;;;;;8.40;4.03;;;10.00;45.00;;;9.93;29.40;100916.28;5222462;28;20055;-72
2022/03/12 00:41:08;;;;;;;9.20;4.38;;;10.00;45.00;;;9.92;29.97;100916.22;5219769;28;20049;-72
2022/03/12 00:43:42;;;;;;;6.80;3.90;;;10.00;45.30;;;10.02;29.48;100920.94;5224418;28;20041;-73
2022/03/12 00:46:14;;;;;;;8.70;4.10;;;10.00;45.00;;;9.98;29.85;100924.28;5224436;28;20056;-73
2022/03/12 00:48:47;;;;;;;7.88;4.55;;;10.00;45.40;;;9.89;29.56;100926.50;5223706;28;20045;-73
2022/03/12 00:51:18;;;;;;;10.02;4.65;;;10.00;45.30;;;9.96;29.81;100932.00;5224656;28;20053;-72
2022/03/12 00:53:50;;;;;;;8.85;3.60;;;9.90;45.50;;;9.95;29.96;100919.81;5224231;28;20045;-72
2022/03/12 00:56:22;;;;;;;8.57;4.03;;;9.90;45.50;;;9.94;30.11;100933.66;5224285;28;20057;-72
2022/03/12 00:58:56;;;;;;;11.07;4.28;;;9.90;45.40;;;9.91;30.46;100933.56;5224195;28;20049;-72
2022/03/12 01:01:28;;;;;;;10.52;4.50;;;9.90;46.40;;;9.87;30.23;100930.75;5224496;28;20055;-73
2022/03/12 01:04:00;;;;;;;8.43;4.10;;;9.90;45.60;;;9.83;30.54;100932.34;5224836;28;20523;-73
2022/03/12 01:06:34;;;;;;;9.70;4.53;;;9.90;45.80;;;9.79;30.20;100938.28;5224734;28;20055;-72
2022/03/12 01:09:06;;;;;;;8.90;4.50;;;9.80;45.70;;;9.84;30.72;100936.72;5224182;28;20056;-73
2022/03/12 01:11:39;;;;;;;9.88;4.35;;;9.80;46.30;;;9.79;30.31;100936.56;5224611;28;20048;-73
2022/03/12 01:14:12;;;;;;;9.80;4.53;;;9.80;45.90;;;9.78;30.29;100936.50;5224566;28;20064;-74
2022/03/12 01:16:44;;;;;;;8.63;4.25;;;9.80;45.90;;;9.69;30.58;100946.53;5224966;28;20044;-73
2022/03/12 01:19:16;;;;;;;9.45;4.38;;;9.80;45.80;;;9.67;30.78;100942.97;5228009;28;20053;-73
2022/03/12 01:21:48;;;;;;;11.18;4.40;;;9.80;46.10;;;9.67;30.65;100945.59;5228312;28;20413;-73
2022/03/12 01:24:20;;;;;;;10.52;4.15;;;9.70;46.20;;;9.64;30.52;100942.84;5228502;28;20124;-72
2022/03/12 01:26:52;;;;;;;10.00;4.57;;;9.70;46.00;;;9.62;30.63;100954.91;5228423;28;20044;-72
2022/03/12 01:29:26;;;;;;;10.07;4.30;;;9.70;46.10;;;9.64;31.14;100950.66;5227789;28;20057;-72
2022/03/12 01:31:57;;;;;;;7.43;3.88;;;9.70;46.40;;;9.64;30.81;100956.75;5227874;28;20405;-73
2022/03/12 01:34:29;;;;;;;9.90;4.30;;;9.70;46.20;;;9.65;30.76;100949.81;5228008;28;20056;-72
2022/03/12 01:37:01;;;;;;;10.13;4.47;;;9.70;46.30;;;9.65;30.78;100960.22;5227511;28;20071;-73
2022/03/12 01:39:33;;;;;;;9.80;5.07;;;9.70;46.90;;;9.61;31.07;100963.56;5228092;28;20055;-72
2022/03/12 01:42:09;;;;;;;10.18;4.60;;;9.60;46.10;;;9.57;30.46;100951.22;5227959;28;20045;-72
2022/03/12 01:44:44;;;;;;;9.75;4.78;;;9.70;46.10;;;9.55;30.92;100958.09;5227075;28;20095;-72
2022/03/12 01:47:19;;;;;;;8.95;3.75;;;9.60;46.30;;;9.53;31.00;100960.63;5226814;28;20234;-72
2022/03/12 01:49:54;;;;;;;8.90;3.90;;;9.60;46.30;;;9.50;31.00;100957.88;5226732;28;20048;-72
2022/03/12 01:52:26;;;;;;;9.23;4.57;;;9.60;46.40;;;9.55;31.04;100960.69;5224759;28;20052;-72
2022/03/12 01:54:58;;;;;;;11.45;4.05;;;9.60;46.40;;;9.61;30.64;100948.81;5227499;28;20053;-72
2022/03/12 01:57:30;;;;;;;9.70;4.07;;;9.60;46.50;;;9.60;30.86;100959.19;5227564;28;20055;-72
2022/03/12 02:00:06;;;;;;;9.20;4.55;;;9.60;46.60;;;9.56;31.14;100967.66;5227355;28;20052;-72
2022/03/12 02:02:38;;;;;;;10.02;4.78;;;9.60;46.60;;;9.51;30.90;100957.94;5227313;28;20044;-73
2022/03/12 02:05:10;;;;;;;9.30;4.05;;;9.60;46.60;;;9.55;31.02;100968.50;5227616;28;20127;-72
2022/03/12 02:07:42;;;;;;;8.63;4.13;;;9.50;46.60;;;9.52;31.36;100961.47;5227115;28;20053;-72
2022/03/12 02:10:19;;;;;;;8.95;4.55;;;9.60;46.80;;;9.48;31.31;100963.03;5227515;28;20436;-72
2022/03/12 02:12:51;;;;;;;7.95;4.43;;;9.50;46.70;;;9.46;31.47;100959.50;5227030;28;20049;-72
2022/03/12 02:15:24;;;;;;;9.77;4.78;;;9.50;46.90;;;9.43;31.40;100966.28;5227367;28;20053;-72
2022/03/12 02:17:56;;;;;;;9.10;4.75;;;9.50;46.80;;;9.41;31.36;100960.13;5226593;28;20048;-72
2022/03/12 02:20:29;;;;;;;8.95;4.40;;;9.50;47.00;;;9.43;31.61;100966.28;5227130;28;20049;-72
2022/03/12 02:23:01;;;;;;;9.15;4.82;;;9.50;47.00;;;9.38;31.84;100968.66;5227127;28;20048;-72
2022/03/12 02:25:35;;;;;;;11.48;4.57;;;9.50;47.20;;;9.33;31.40;100972.81;5227266;28;20049;-72
2022/03/12 02:28:19;;;;;;;9.82;4.18;;;9.50;47.00;;;9.36;31.63;100978.13;5226594;28;20049;-72
2022/03/12 02:30:52;;;;;;;9.30;4.18;;;9.40;47.10;;;9.36;31.46;100983.34;5226786;28;20055;-72
2022/03/12 02:33:28;;;;;;;8.65;4.18;;;9.50;47.30;;;9.39;32.02;100988.69;5226929;28;20057;-72
2022/03/12 02:36:01;;;;;;;13.07;4.75;;;9.40;47.90;;;9.40;31.66;100995.66;5226644;28;20159;-72
2022/03/12 02:38:34;;;;;;;8.45;3.75;;;9.40;47.20;;;9.39;31.52;100988.69;5226291;28;20053;-73
2022/03/12 02:41:11;;;;;;;8.75;4.18;;;9.40;47.20;;;9.35;31.92;101004.09;5227366;28;20048;-72
2022/03/12 02:43:45;;;;;;;10.32;4.15;;;9.40;47.30;;;9.38;32.18;100993.78;5226602;28;20045;-73
2022/03/12 02:46:18;;;;;;;9.20;4.70;;;9.40;47.40;;;9.34;31.71;101000.59;5226690;28;20052;-72
2022/03/12 02:48:53;;;;;;;9.90;4.10;;;9.40;47.40;;;9.32;31.85;101017.84;5226245;28;20049;-72
2022/03/12 02:51:26;;;;;;;9.60;5.05;;;9.40;47.20;;;9.27;31.91;101014.16;5226711;28;20541;-73
2022/03/12 02:53:58;;;;;;;9.93;4.03;;;9.40;47.30;;;9.25;31.71;101021.88;5226281;28;20095;-73
2022/03/12 02:56:33;;;;;;;8.60;4.00;;;9.40;47.50;;;9.28;31.91;101028.06;5226446;28;20056;-72
2022/03/12 02:59:14;;;;;;;10.93;4.80;;;9.30;47.50;;;9.20;31.91;101006.94;5225799;28;20057;-72
2022/03/12 03:01:46;;;;;;;9.48;4.22;;;9.30;47.30;;;9.18;31.62;101008.56;5226466;28;20091;-72
2022/03/12 03:04:22;;;;;;;9.65;4.53;;;9.30;47.50;;;9.14;31.69;100999.75;5226471;28;20406;-72
2022/03/12 03:06:54;;;;;;;8.90;4.32;;;9.30;47.40;;;9.18;32.11;101003.34;5226306;28;20049;-72
2022/03/12 03:09:26;;;;;;;8.82;4.20;;;9.30;47.80;;;9.18;32.21;100998.16;5225872;28;20056;-73
2022/03/12 03:12:03;;;;;;;8.40;4.20;;;9.20;47.70;;;9.16;32.27;100999.81;5225941;28;20049;-73
2022/03/12 03:14:35;;;;;;;9.95;4.32;;;9.20;47.70;;;9.05;32.12;101007.13;5225768;28;20045;-72
2022/03/12 03:17:10;;;;;;;8.73;4.47;;;9.20;47.90;;;9.10;32.27;101016.03;5225692;28;20063;-72
2022/03/12 03:19:44;;;;;;;9.98;4.30;;;9.20;48.00;;;9.05;32.11;101016.63;5226102;28;20076;-72
2022/03/12 03:22:16;;;;;;;9.57;4.55;;;9.20;47.90;;;9.05;32.58;101021.84;5226129;28;20481;-73
2022/03/12 03:24:48;;;;;;;10.23;4.28;;;9.20;48.00;;;9.02;32.54;101012.19;5225919;28;20478;-72
2022/03/12 03:27:22;;;;;;;9.75;4.10;;;9.10;47.90;;;8.96;32.69;101023.22;5225553;28;20055;-72
2022/03/12 03:29:53;;;;;;;12.10;4.95;;;9.10;48.00;;;9.00;32.77;101008.66;5226189;28;20054;-73
2022/03/12 03:32:25;;;;;;;9.55;4.53;;;9.10;48.50;;;9.00;32.82;101019.06;5225912;28;20049;-72
2022/03/12 03:34:57;;;;;;;11.93;4.40;;;9.10;48.40;;;8.96;32.40;101022.31;5225784;28;20071;-72
2022/03/12 03:37:29;;;;;;;8.95;4.43;;;9.10;48.20;;;8.97;32.36;101024.97;5225254;28;20049;-72
2022/03/12 03:40:01;;;;;;;10.07;4.05;;;9.10;48.20;;;8.98;32.84;101025.88;5224928;28;20310;-71
2022/03/12 03:42:34;;;;;;;8.70;3.85;;;9.10;48.30;;;8.99;32.73;101025.03;5225847;28;20555;-72
2022/03/12 03:45:07;;;;;;;8.15;4.03;;;9.10;48.80;;;9.00;33.87;101028.53;5225741;28;20055;-73
2022/03/12 03:47:39;;;;;;;10.38;4.20;;;9.10;49.30;;;8.98;33.82;101026.75;5225092;28;20045;-71
2022/03/12 03:50:11;;;;;;;9.25;4.93;;;9.10;49.40;;;8.95;34.21;101031.84;5225430;28;20410;-72
2022/03/12 03:52:43;;;;;;;11.77;4.03;;;9.00;49.80;;;8.99;33.78;101038.03;5225658;28;20053;-72
2022/03/12 03:55:15;;;;;;;9.27;4.25;;;9.00;49.70;;;9.00;33.81;101038.94;5225399;28;20045;-73
2022/03/12 03:57:48;;;;;;;8.93;4.55;;;9.00;49.80;;;8.90;34.03;101042.84;5225131;28;20489;-72
2022/03/12 04:00:22;;;;;;;9.40;4.68;;;9.00;49.30;;;8.91;33.94;101040.31;5225243;28;20053;-72
2022/03/12 04:03:01;;;;;;;8.63;4.22;;;9.00;49.60;;;8.91;33.30;101048.09;5225587;28;20064;-72
2022/03/12 04:05:35;;;;;;;11.48;5.10;;;9.00;49.70;;;8.90;33.75;101046.34;5225582;28;20045;-72
2022/03/12 04:08:08;;;;;;;11.23;4.88;;;8.90;49.50;;;8.89;34.04;101041.06;5224855;28;20486;-72
2022/03/12 04:10:40;;;;;;;9.45;4.25;;;9.00;49.70;;;8.86;33.54;101034.00;5225424;28;20379;-73
2022/03/12 04:13:17;;;;;;;8.90;5.07;;;9.00;49.60;;;8.81;34.26;101038.13;5224932;28;20057;-72
2022/03/12 04:15:52;;;;;;;9.70;4.45;;;8.90;49.70;;;8.81;34.27;101047.63;5224909;28;20055;-73
2022/03/12 04:18:24;;;;;;;8.30;4.15;;;8.90;49.80;;;8.80;34.33;101057.16;5224643;28;20049;-72
2022/03/12 04:20:56;;;;;;;10.55;5.03;;;8.90;49.70;;;8.75;34.35;101048.25;5225246;28;20413;-72
2022/03/12 04:23:28;;;;;;;10.75;4.63;;;8.90;50.00;;;8.77;34.59;101045.72;5225309;28;20052;-73
2022/03/12 04:26:01;;;;;;;8.80;4.10;;;8.90;50.10;;;8.80;34.08;101046.75;5225154;28;20049;-72
2022/03/12 04:28:34;;;;;;;9.65;4.25;;;8.90;50.20;;;8.81;34.67;101058.94;5224410;28;20052;-72
2022/03/12 04:31:08;;;;;;;10.13;4.53;;;8.90;50.30;;;8.83;34.70;101048.59;5225136;28;20480;-72
2022/03/12 04:33:40;;;;;;;8.68;4.13;;;8.90;50.30;;;8.79;34.64;101059.66;5225392;28;20045;-72
2022/03/12 04:36:13;;;;;;;10.65;4.72;;;8.90;50.40;;;8.77;34.40;101051.78;5224883;28;20067;-73
2022/03/12 04:38:46;;;;;;;9.52;4.05;;;8.90;50.40;;;8.78;34.43;101057.88;5224540;28;20049;-72
2022/03/12 04:41:19;;;;;;;10.57;4.25;;;8.90;50.60;;;8.87;34.65;101060.91;5224894;28;20052;-72
2022/03/12 04:43:52;;;;;;;10.02;4.13;;;8.90;50.60;;;8.81;34.69;101061.53;5224979;28;20056;-72
2022/03/12 04:46:24;;;;;;;9.75;4.32;;;8.80;50.50;;;8.76;34.92;101065.63;5224801;28;20064;-72
2022/03/12 04:48:56;;;;;;;9.00;3.85;;;8.90;50.70;;;8.76;35.28;101057.81;5224493;28;20049;-73
2022/03/12 04:51:29;;;;;;;10.65;4.53;;;8.80;51.00;;;8.74;35.00;101061.16;5225067;28;20057;-73
2022/03/12 04:54:02;;;;;;;9.23;3.88;;;8.80;51.00;;;8.69;35.46;101061.84;5228981;28;20052;-72
2022/03/12 04:56:34;;;;;;;10.50;5.32;;;8.80;51.10;;;8.63;35.25;101052.88;5228921;28;20429;-72
2022/03/12 04:59:07;;;;;;;10.82;4.35;;;8.70;51.30;;;8.61;35.64;101049.31;5228174;28;20478;-72
2022/03/12 05:01:39;;;;;;;10.68;5.20;;;8.70;51.50;;;8.62;35.65;101056.28;5229177;28;20502;-72
2022/03/12 05:04:11;;;;;;;12.80;4.90;;;8.70;51.70;;;8.56;35.71;101072.47;5228669;28;20053;-72
2022/03/12 05:06:43;;;;;;;10.10;4.40;;;8.70;51.90;;;8.52;35.92;101061.84;5228599;28;20496;-72
2022/03/12 05:09:15;;;;;;;9.38;3.88;;;8.70;52.10;;;8.48;36.25;101068.63;5228265;28;20045;-72
2022/03/12 05:11:49;;;;;;;9.75;4.20;;;8.60;52.30;;;8.48;36.48;101065.16;5228331;28;20055;-73
2022/03/12 05:14:23;;;;;;;10.70;4.13;;;8.60;52.50;;;8.43;36.88;101071.00;5228527;28;20045;-72
2022/03/12 05:16:55;;;;;;;10.07;4.57;;;8.60;52.80;;;8.39;36.69;101063.88;5228554;28;20053;-73
2022/03/12 05:19:27;;;;;;;11.35;4.25;;;8.50;52.90;;;8.42;36.92;101058.84;5227884;28;20048;-72
2022/03/12 05:21:59;;;;;;;12.05;4.50;;;8.50;53.10;;;8.37;37.51;101060.31;5228206;28;20056;-72
2022/03/12 05:24:31;;;;;;;8.15;4.15;;;8.50;53.50;;;8.33;37.84;101055.75;5228445;28;20048;-72
2022/03/12 05:27:12;;;;;;;8.95;4.38;;;8.40;53.60;;;8.31;37.86;101049.59;5227625;28;20053;-72
2022/03/12 05:29:47;;;;;;;8.48;4.78;;;8.40;54.00;;;8.21;38.14;101049.97;5228423;28;20137;-72
2022/03/12 05:32:18;;;;;;;10.95;4.85;;;8.40;54.30;;;8.25;38.71;101062.28;5228262;28;20055;-72
2022/03/12 05:34:50;;;;;;;11.07;4.55;;;8.40;54.50;;;8.23;38.93;101068.25;5227812;28;20045;-73
2022/03/12 05:37:22;;;;;;;9.75;4.35;;;8.40;54.90;;;8.23;39.18;101069.13;5227788;28;20049;-72
2022/03/12 05:39:55;;;;;;;10.23;4.57;;;8.40;55.00;;;8.26;39.00;101071.88;5333037;22;20056;-74
2022/03/12 05:42:27;;;;;;;10.85;4.43;;;8.40;55.30;;;8.30;39.57;101079.00;5215340;28;20443;-73
2022/03/12 05:45:01;;;;;;;11.30;4.30;;;8.30;55.40;;;8.33;39.57;101078.25;5227379;28;20507;-73
2022/03/12 05:47:35;;;;;;;10.02;4.78;;;8.40;55.80;;;8.32;39.84;101082.56;5227893;28;20059;-72
2022/03/12 05:50:10;;;;;;;9.23;3.65;;;8.40;56.00;;;8.37;39.99;101080.22;5227849;28;20053;-71
2022/03/12 05:52:49;;;;;;;9.27;4.57;;;8.50;56.70;;;8.38;39.67;101085.47;5228166;28;20550;-71
2022/03/12 05:55:24;;;;;;;12.90;5.28;;;8.50;56.20;;;8.41;40.04;101084.72;5227756;28;20390;-72
2022/03/12 05:57:56;;;;;;;;;;;8.50;57.20;;;8.39;40.56;101079.47;5221376;28;20053;-72
2022/03/12 06:00:32;;;;;;;13.18;5.78;;;8.50;56.80;;;8.40;40.76;101085.53;5206960;28;19924;-73
2022/03/12 06:03:04;;;;;;;13.50;5.25;;;8.50;56.90;;;8.41;40.78;101090.84;5206350;28;20053;-74
2022/03/12 06:05:40;;;;;;;12.63;5.57;;;8.50;57.20;;;8.45;41.20;101088.38;5201438;28;20050;-73
2022/03/12 06:08:21;;;;;;;10.98;5.15;;;8.50;57.40;;;8.50;40.94;101089.50;5198635;28;20099;-72
2022/03/12 06:10:56;;;;;;;10.25;5.20;;;8.60;57.70;;;8.53;41.34;101100.00;5206849;28;20421;-74
2022/03/12 06:13:31;;;;;;;;;;;8.60;57.70;;;8.64;41.00;101098.81;5207410;28;20138;-73
2022/03/12 06:16:05;;;;;;;8.15;4.15;;;8.60;57.70;;;8.63;41.59;101097.94;5206943;28;20437;-72
2022/03/12 06:18:38;;;;;;;10.85;4.78;;;8.60;58.00;;;8.64;41.79;101097.13;5206337;28;20049;-72
2022/03/12 06:21:10;;;;;;;10.20;3.78;;;8.70;58.10;;;8.63;42.08;101104.84;5206907;28;20049;-73
2022/03/12 06:23:42;;;;;;;9.55;4.63;;;8.70;58.40;;;8.63;41.92;101110.03;5206715;28;20054;-73
2022/03/12 06:26:16;;;;;;;11.07;4.38;;;8.70;58.40;;;8.64;42.20;101102.31;5206602;28;20057;-74
2022/03/12 06:28:48;;;;;;;9.35;4.30;;;8.70;58.50;;;8.64;42.43;101111.81;5206467;28;20100;-73
2022/03/12 06:31:22;;;;;;;9.88;4.65;;;8.70;58.60;;;8.66;42.34;101112.78;5206819;28;20046;-71
2022/03/12 06:33:54;;;;;;;10.48;4.72;;;8.70;58.60;;;8.76;42.25;101111.50;5206534;28;20057;-74
2022/03/12 06:36:26;;;;;;;8.15;4.30;;;8.80;58.60;;;8.94;41.42;101113.25;5206515;28;20046;-71
2022/03/12 06:38:58;;;;;;;9.73;4.63;;;8.90;58.50;;;9.31;41.15;101114.91;5205978;28;20514;-71
2022/03/12 06:41:35;;;;;;;12.75;5.75;;;9.10;58.40;;;9.60;40.54;101113.63;5206188;28;20049;-71
2022/03/12 06:44:08;;;;;;;12.32;5.85;;;9.20;58.00;;;9.84;40.32;101118.97;5206373;28;20057;-73
2022/03/12 06:46:41;;;;;;;9.40;4.80;;;9.50;57.80;;;9.78;40.50;101121.34;5206146;28;20049;-74
2022/03/12 06:49:13;;;;;;;11.70;4.85;;;9.60;57.50;;;10.05;40.33;101125.13;5205913;28;20405;-74
2022/03/12 06:51:45;;;;;;;12.43;5.05;;;9.80;57.40;;;10.55;39.41;101123.72;5206191;28;20052;-73
2022/03/12 06:54:18;;;;;;;8.30;4.45;;;10.10;57.00;;;11.57;37.59;101118.00;5206122;28;20052;-74
2022/03/12 06:56:50;;;;;;;11.23;5.18;;;10.60;56.40;;;12.12;36.81;101119.94;5206081;28;20513;-71
2022/03/12 06:59:22;;;;;;;9.38;5.25;;;11.20;55.30;;;12.92;35.36;101124.31;5206280;28;20053;-71
2022/03/12 07:01:55;;;;;;;9.60;4.95;;;11.80;54.20;;;13.55;34.54;101123.53;5206442;28;20410;-71
2022/03/12 07:04:27;;;;;;;8.98;4.40;;;12.40;53.10;;;14.38;33.33;101111.75;5205960;28;20045;-71
2022/03/12 07:07:01;;;;;;;11.48;5.32;;;13.00;52.20;;;14.77;32.15;101103.06;5206206;28;20045;-71
2022/03/12 07:09:34;;;;;;;11.00;5.22;;;13.50;50.90;;;15.03;31.85;101119.38;5206078;28;20050;-71
2022/03/12 07:12:07;;;;;;;13.10;5.72;;;13.80;50.50;;;14.94;32.07;101121.81;5205802;28;20141;-71
2022/03/12 07:14:39;;;;;;;9.55;4.90;;;13.90;50.10;;;15.36;31.90;101119.22;5205498;28;20409;-71
2022/03/12 07:17:12;;;;;;;10.82;5.07;;;14.20;50.10;;;16.07;30.98;101120.59;5205977;28;20128;-71
2022/03/12 07:19:44;;;;;;;9.40;4.75;;;14.70;49.60;;;16.25;30.63;101115.66;5205801;28;20084;-70
2022/03/12 07:22:16;;;;;;;13.43;7.10;;;14.90;49.00;;;16.95;29.80;101122.03;5205957;28;20068;-71
2022/03/12 07:24:48;;;;;;;15.00;6.90;;;15.50;48.70;;;17.63;29.02;101124.63;5205804;28;20052;-72
2022/03/12 07:27:20;;;;;;;7.82;4.43;;;16.00;47.90;;;18.49;28.12;101133.41;5205910;28;20056;-72
2022/03/12 07:29:52;;;;;;;10.50;4.85;;;16.60;47.10;;;18.99;26.94;101143.47;5205914;28;20064;-72
2022/03/12 07:32:26;;;;;;;9.63;5.00;;;17.20;46.00;;;19.36;26.61;101133.06;5205612;28;20048;-70
2022/03/12 07:34:58;;;;;;;9.70;5.10;;;17.70;45.40;;;19.65;26.43;101146.44;5205579;28;20472;-73
2022/03/12 07:37:30;;;;;;;12.88;5.03;;;17.90;45.20;;;19.39;26.85;101131.31;5205310;28;20045;-71
2022/03/12 07:40:04;;;;;;;10.60;4.47;;;17.90;45.30;;;19.10;26.79;101144.38;5205081;28;20064;-71
2022/03/12 07:42:37;;;;;;;8.25;4.63;;;17.70;45.40;;;19.13;26.99;101136.50;5205581;28;20046;-71
2022/03/12 07:45:11;;;;;;;9.77;4.43;;;17.60;45.40;;;19.17;27.07;101138.28;5188635;28;20053;-70
2022/03/12 07:47:47;;;;;;;9.85;4.90;;;17.70;45.30;;;18.94;27.18;101146.06;5193238;28;20057;-72
2022/03/12 07:50:20;;;;;;;9.25;4.95;;;17.50;45.40;;;18.74;27.52;101137.13;5198590;28;20482;-70
2022/03/12 07:52:53;;;;;;;10.93;5.75;;;17.40;45.90;;;18.61;27.87;101145.81;5193170;28;20050;-75
2022/03/12 07:55:25;;;;;;;9.25;5.63;;;17.20;46.20;;;18.55;28.24;101146.66;5193112;28;20046;-66
2022/03/12 07:57:57;;;;;;;10.13;5.07;;;17.10;46.60;;;19.06;29.60;101145.25;5193221;28;20144;-65
2022/03/12 08:00:30;;;;;;;14.10;7.25;;;17.40;50.00;;;19.86;28.82;101148.25;5191485;28;20064;-66
2022/03/12 08:03:03;;;;;;;10.40;5.80;;;18.00;48.60;;;19.87;27.52;101153.53;5193672;28;20050;-65
2022/03/12 08:05:36;;;;;;;11.93;5.93;;;18.30;46.30;;;19.79;27.14;101150.00;5187478;28;20129;-74
2022/03/12 08:08:08;;;;;;;15.05;8.38;;;18.40;45.50;;;20.11;27.13;101152.72;5189313;28;20081;-71
2022/03/12 08:13:26;;;;;;;9.88;5.35;;;18.70;45.90;;;21.50;25.98;101159.63;5197924;28;20037;-72
2022/03/12 08:15:59;;;;;;;9.95;4.55;;;19.30;45.60;;;21.94;25.38;101156.75;5184383;28;20046;-74
2022/03/12 08:18:32;;;;;;;9.30;4.97;;;19.80;44.80;;;22.14;25.49;101159.31;5186651;28;20045;-70
2022/03/12 08:21:04;;;;;;;9.15;4.97;;;20.00;44.70;;;22.41;25.40;101166.19;5188720;28;20075;-70
2022/03/12 08:23:36;;;;;;;11.98;5.78;;;20.30;44.80;;;22.60;25.18;101166.91;5204061;28;20045;-75
2022/03/12 08:26:09;;;;;;;8.52;4.55;;;20.40;44.40;;;22.94;25.04;101175.47;5191869;28;20133;-71
2022/03/12 08:28:41;;;;;;;9.20;5.10;;;20.70;44.60;;;23.22;25.10;101176.09;5196919;28;20058;-73
2022/03/12 08:31:13;;;;;;;9.98;5.55;;;20.90;44.80;;;23.20;25.61;101183.19;5208724;28;20049;-70
2022/03/12 08:33:47;;;;;;;10.50;4.85;;;21.10;45.00;;;23.42;25.95;101179.41;5208358;28;20049;-71
2022/03/12 08:36:19;;;;;;;7.85;4.20;;;21.30;45.30;;;23.53;26.00;101188.09;5208429;28;20512;-71
2022/03/12 08:38:51;;;;;;;8.10;4.10;;;21.50;45.60;;;23.41;26.17;101193.59;5207909;28;20053;-70
2022/03/12 08:41:24;;;;;;;8.95;4.30;;;21.40;45.60;;;23.01;26.86;101178.06;5205604;28;20582;-71
2022/03/12 08:43:56;;;;;;;8.63;4.38;;;21.20;46.10;;;23.15;27.24;101187.69;5209206;28;20049;-71
2022/03/12 08:46:28;;;;;;;6.88;3.83;;;21.20;46.70;;;23.16;27.33;101187.66;5208470;28;20049;-72
2022/03/12 08:49:01;;;;;;;7.43;4.07;;;21.20;47.00;;;23.63;26.55;101193.34;5207815;28;20141;-71
2022/03/12 08:51:33;;;;;;;7.78;4.65;;;21.50;46.40;;;23.91;26.70;101200.06;5209024;28;20083;-72
2022/03/12 08:54:05;;;;;;;8.00;4.55;;;21.70;46.90;;;23.86;26.19;101201.91;5206566;28;20052;-70
2022/03/12 08:56:38;;;;;;;7.10;4.20;;;21.80;46.00;;;23.42;26.98;101198.00;5208424;28;20051;-70
2022/03/12 08:59:10;;;;;;;7.47;4.07;;;21.60;46.20;;;22.88;27.34;101203.00;5208363;28;20144;-74
2022/03/12 09:01:43;;;;;;;8.68;4.80;;;21.40;46.20;;;22.18;28.02;101208.84;5208054;28;20060;-71
2022/03/12 09:04:19;;;;;;;9.88;4.90;;;20.90;47.30;;;21.55;28.98;101214.44;5208632;28;20054;-71
2022/03/12 09:06:52;;;;;;;8.82;4.45;;;20.40;47.30;;;21.12;29.70;101206.56;5206855;28;20045;-71
2022/03/12 09:09:24;;;;;;;9.73;4.38;;;20.10;48.00;;;20.84;30.10;101205.72;5208341;28;20059;-73
2022/03/12 09:11:55;;;;;;;8.75;4.57;;;20.00;48.40;;;20.60;30.68;101203.06;5208730;28;20049;-71
2022/03/12 09:14:28;;;;;;;9.40;4.30;;;19.90;48.70;;;20.17;31.54;101218.88;5203272;28;20055;-71
2022/03/12 09:17:00;;;;;;;9.20;4.50;;;19.60;49.40;;;19.93;32.11;101217.06;5207439;28;20041;-71
2022/03/12 09:19:34;;;;;;;9.65;4.47;;;19.40;49.70;;;19.65;32.88;101223.13;5205865;28;20052;-73
2022/03/12 09:22:06;;;;;;;7.45;3.97;;;19.20;50.50;;;19.30;33.51;101217.59;5207563;28;20076;-72
2022/03/12 09:24:40;;;;;;;9.10;4.43;;;18.90;51.00;;;19.06;33.88;101219.25;5208382;28;20065;-71
2022/03/12 09:27:12;;;;;;;8.00;3.83;;;18.70;51.40;;;18.94;33.79;101219.16;5206390;28;20048;-70
2022/03/12 09:29:44;;;;;;;8.18;4.20;;;18.50;51.50;;;18.76;34.45;101213.72;5207667;28;20521;-72
2022/03/12 09:32:16;;;;;;;7.78;4.25;;;18.30;52.20;;;18.86;34.66;101210.28;5207158;28;20418;-71
2022/03/12 09:34:50;;;;;;;10.65;5.15;;;18.30;52.30;;;18.77;34.91;101212.84;5205421;28;20046;-71
2022/03/12 09:37:23;;;;;;;8.82;4.53;;;18.30;52.90;;;18.73;35.07;101213.72;5202508;28;20414;-68
2022/03/12 09:39:55;;;;;;;6.93;4.28;;;18.20;53.00;;;18.62;35.96;101214.47;5206801;28;20057;-68
2022/03/12 09:42:30;;;;;;;9.98;4.70;;;18.20;54.70;;;18.74;35.58;101219.00;5204218;28;20045;-68
2022/03/12 09:45:03;;;;;;;8.27;4.15;;;18.30;53.50;;;18.63;35.71;101221.50;5206406;28;20131;-67
2022/03/12 09:47:35;;;;;;;9.55;4.72;;;18.20;53.70;;;18.54;35.69;101213.53;5206626;28;20057;-68
2022/03/12 09:50:10;;;;;;;9.82;4.25;;;18.10;54.20;;;18.34;36.40;101220.38;5207412;28;20049;-68
2022/03/12 09:52:43;;;;;;;8.43;4.75;;;17.90;54.10;;;18.31;36.68;101215.03;5207309;28;20051;-69
2022/03/12 09:55:16;;;;;;;7.65;3.95;;;17.80;54.60;;;18.30;36.65;101213.28;5207053;28;20049;-67
2022/03/12 09:57:49;;;;;;;9.63;4.47;;;17.80;54.70;;;18.13;36.90;101210.50;5204457;28;20047;-66
2022/03/12 10:00:21;;;;;;;9.32;3.97;;;17.70;54.70;;;17.89;37.25;101216.38;5196798;28;20046;-68
2022/03/12 10:02:53;;;;;;;9.48;4.10;;;17.60;54.90;;;17.97;37.44;101213.81;5200885;28;20124;-67
2022/03/12 10:05:27;;;;;;;7.15;3.78;;;17.60;55.30;;;18.24;36.86;101213.22;5200379;28;20495;-67
2022/03/12 10:07:59;;;;;;;7.45;3.25;;;17.70;55.10;;;18.69;37.01;101200.47;5200716;28;20050;-67
2022/03/12 10:10:32;;;;;;;9.05;4.40;;;18.00;55.70;;;19.02;35.07;101201.59;5201356;28;20041;-68
2022/03/12 10:13:04;;;;;;;6.28;2.95;;;18.30;53.30;;;19.30;35.04;101209.69;5206605;28;20045;-69
2022/03/12 10:15:36;;;;;;;6.30;3.35;;;18.60;53.90;;;19.67;35.16;101198.44;5207169;28;20383;-69
2022/03/12 10:18:08;;;;;;;7.32;3.20;;;18.90;53.80;;;20.17;35.09;101210.94;5206794;28;20060;-67
2022/03/12 10:20:42;;;;;;;6.57;2.97;;;19.40;53.70;;;20.51;34.97;101200.44;5202090;28;20451;-69
2022/03/12 10:23:14;;;;;;;4.03;2.30;;;19.70;53.70;;;20.68;34.86;101197.81;5206637;28;20056;-69
2022/03/12 10:25:46;;;;;;;5.82;2.85;;;20.00;53.40;;;20.83;34.55;101195.13;5200556;28;20049;-69
2022/03/12 10:28:18;;;;;;;7.25;2.45;;;20.10;53.10;;;20.93;34.68;101199.53;5206448;28;20048;-70
2022/03/12 10:30:50;;;;;;;6.78;2.63;;;20.30;53.10;;;20.89;34.54;101197.78;5207194;28;20495;-69
2022/03/12 10:33:25;;;;;;;5.63;2.47;;;20.30;52.70;;;20.77;34.53;101197.78;5207080;28;20056;-69
2022/03/12 10:36:10;;;;;;;156.85;12.98;;;20.30;52.70;;;20.52;35.02;101205.72;5206729;28;20497;-69
2022/03/12 10:38:45;;;;;;;103.25;10.10;;;20.00;53.20;;;20.33;35.47;101203.91;5206319;28;20052;-68
2022/03/12 10:41:18;;;;;;;26.13;3.75;;;19.80;53.70;;;20.20;35.93;101202.13;5206865;28;20052;-69
2022/03/12 10:43:54;;;;;;;12.60;3.00;;;19.70;54.10;;;20.20;37.00;101205.66;5206382;28;20049;-70